Time;durP1;ratioP1;P1;durP2;ratioP2;P2;SDS_P1;SDS_P2;PMS_P1;PMS_P2;Temp;Humidity;BMP_temperature;BMP_pressure;BME280_temperature;BME280_humidity;BME280_pressure;Samples;Min_cycle;Max_cycle;Signal;HPM_P1;HPM_P2
2022/01/03 00:00:38;;;;;;;14.05;7.32;;;1.30;99.90;;;;;;5088633;28;20275;-76
2022/01/03 00:03:08;;;;;;;16.02;7.90;;;1.20;99.90;;;;;;5088952;28;20782;-76
2022/01/03 00:05:34;;;;;;;12.57;6.68;;;1.30;99.90;;;;;;5088936;28;20164;-75
2022/01/03 00:08:02;;;;;;;11.90;7.00;;;1.40;99.90;;;;;;5090244;28;20216;-75
2022/01/03 00:10:28;;;;;;;13.38;8.13;;;1.40;99.90;;;;;;5089712;28;20148;-76
2022/01/03 00:12:54;;;;;;;12.55;7.07;;;1.40;99.90;;;;;;5090077;28;20672;-76
2022/01/03 00:15:21;;;;;;;12.20;6.80;;;1.30;99.90;;;;;;5088679;28;20198;-75
2022/01/03 00:17:48;;;;;;;10.45;6.68;;;1.40;99.90;;;;;;5090114;28;20186;-75
2022/01/03 00:20:14;;;;;;;10.98;6.28;;;1.30;99.90;;;;;;5088293;28;20239;-76
2022/01/03 00:22:50;;;;;;;13.07;6.90;;;1.20;99.90;;;;;;5089900;28;20244;-75
2022/01/03 00:25:21;;;;;;;13.10;6.18;;;1.20;99.90;;;;;;5088519;28;20227;-76
2022/01/03 00:28:04;;;;;;;10.18;7.03;;;1.10;99.90;;;;;;5089855;28;20152;-76
2022/01/03 00:30:34;;;;;;;9.90;6.60;;;1.10;99.90;;;;;;5087843;28;20180;-76
2022/01/03 00:33:02;;;;;;;9.82;6.45;;;1.30;99.90;;;;;;5088307;28;20195;-76
2022/01/03 00:35:29;;;;;;;11.88;6.78;;;1.30;99.90;;;;;;5089574;28;20570;-75
2022/01/03 00:37:59;;;;;;;11.13;5.85;;;1.30;99.90;;;;;;5087656;28;20207;-77
2022/01/03 00:40:26;;;;;;;14.32;6.85;;;1.20;99.90;;;;;;5070823;28;20204;-76
2022/01/03 00:42:52;;;;;;;8.40;5.70;;;1.10;99.90;;;;;;5073149;28;20188;-76
2022/01/03 00:45:19;;;;;;;10.63;6.10;;;1.00;99.90;;;;;;5087293;28;20196;-75
2022/01/03 00:47:47;;;;;;;13.10;6.40;;;1.10;99.90;;;;;;5089332;28;20164;-76
2022/01/03 00:50:15;;;;;;;9.05;6.05;;;1.10;99.90;;;;;;5068170;28;20176;-76
2022/01/03 00:52:42;;;;;;;10.95;5.45;;;1.20;99.90;;;;;;5069244;28;20224;-76
2022/01/03 00:55:09;;;;;;;13.60;6.38;;;1.10;99.90;;;;;;5069266;28;20676;-76
2022/01/03 00:58:08;;;;;;;10.43;6.82;;;1.00;99.90;;;;;;5068915;28;20180;-76
2022/01/03 01:00:45;;;;;;;13.82;6.97;;;1.00;99.90;;;;;;5067866;28;20212;-76
2022/01/03 01:03:37;;;;;;;16.48;6.45;;;0.90;99.90;;;;;;5069131;28;20214;-75
2022/01/03 01:06:06;;;;;;;10.15;5.75;;;0.80;99.90;;;;;;5067906;28;20167;-76
2022/01/03 01:08:34;;;;;;;11.40;5.82;;;0.90;99.90;;;;;;5069187;28;20154;-75
2022/01/03 01:11:06;;;;;;;8.07;5.68;;;1.00;99.90;;;;;;5069205;28;20223;-75
2022/01/03 01:13:33;;;;;;;7.78;5.43;;;1.00;99.90;;;;;;5068966;28;20789;-76
2022/01/03 01:16:04;;;;;;;11.00;6.40;;;1.10;99.90;;;;;;5069036;28;20172;-76
2022/01/03 01:18:35;;;;;;;8.35;5.38;;;1.00;99.90;;;;;;5069068;28;20496;-76
2022/01/03 01:21:00;;;;;;;7.10;5.22;;;1.00;99.90;;;;;;5068994;28;20215;-76
2022/01/03 01:23:26;;;;;;;6.68;5.53;;;1.00;99.90;;;;;;5068853;28;20200;-76
2022/01/03 01:28:18;;;;;;;8.73;6.15;;;1.00;99.90;;;;;;5069017;28;20168;-75
2022/01/03 01:30:48;;;;;;;10.25;6.43;;;0.90;99.90;;;;;;5067687;28;20239;-76
2022/01/03 01:33:16;;;;;;;9.50;5.75;;;0.80;99.90;;;;;;5067451;28;20180;-76
2022/01/03 01:35:42;;;;;;;9.07;5.70;;;0.90;99.90;;;;;;5067398;28;20188;-76
2022/01/03 01:38:18;;;;;;;7.60;6.00;;;1.00;99.90;;;;;;5068807;28;20220;-76
2022/01/03 01:40:52;;;;;;;9.82;6.30;;;1.00;99.90;;;;;;5067342;28;20227;-75
2022/01/03 01:43:39;;;;;;;12.85;6.22;;;1.00;99.90;;;;;;5068776;28;20215;-75
2022/01/03 01:46:12;;;;;;;10.25;5.85;;;0.80;99.90;;;;;;5070278;28;20180;-75
2022/01/03 01:48:41;;;;;;;6.40;4.72;;;0.80;99.90;;;;;;5072925;28;20153;-76
2022/01/03 01:51:09;;;;;;;10.40;5.93;;;0.70;99.90;;;;;;5072742;28;20157;-75
2022/01/03 01:53:55;;;;;;;9.00;5.68;;;0.70;99.90;;;;;;5072570;28;20246;-75
2022/01/03 01:56:27;;;;;;;8.57;4.55;;;0.70;99.90;;;;;;5071431;28;20210;-76
2022/01/03 01:59:08;;;;;;;9.77;5.60;;;0.70;99.90;;;;;;5072586;28;20248;-75
2022/01/03 02:02:04;;;;;;;9.95;5.90;;;0.70;99.90;;;;;;5072466;28;20224;-75
2022/01/03 02:04:48;;;;;;;11.40;5.93;;;0.80;99.90;;;;;;5070673;28;20204;-76
2022/01/03 02:07:54;;;;;;;9.85;6.05;;;0.90;99.90;;;;;;5072721;28;20247;-75
2022/01/03 02:10:29;;;;;;;8.77;6.22;;;0.80;99.90;;;;;;5072425;28;20248;-75
2022/01/03 02:12:56;;;;;;;6.78;5.55;;;0.80;99.90;;;;;;5072241;28;20221;-75
2022/01/03 02:15:22;;;;;;;12.35;7.13;;;0.90;99.90;;;;;;5072336;28;20211;-75
2022/01/03 02:17:49;;;;;;;10.07;6.43;;;0.90;99.90;;;;;;5071037;28;20169;-75
2022/01/03 02:20:26;;;;;;;13.57;6.93;;;0.90;99.90;;;;;;5070795;28;20260;-76
2022/01/03 02:22:53;;;;;;;10.05;6.30;;;1.00;99.90;;;;;;5070897;28;20189;-75
2022/01/03 02:25:21;;;;;;;10.77;7.13;;;0.90;99.90;;;;;;5070717;28;20208;-75
2022/01/03 02:27:50;;;;;;;9.63;7.03;;;0.90;99.90;;;;;;5072091;28;20149;-75
2022/01/03 02:30:21;;;;;;;12.43;6.22;;;0.90;99.90;;;;;;5070936;28;20232;-76
2022/01/03 02:32:47;;;;;;;11.23;7.20;;;0.90;99.90;;;;;;5071974;28;20160;-75
2022/01/03 02:35:13;;;;;;;11.52;6.97;;;0.80;99.90;;;;;;5071858;28;20260;-75
2022/01/03 02:37:42;;;;;;;9.25;6.45;;;0.80;99.90;;;;;;5070510;28;20255;-75
2022/01/03 02:40:11;;;;;;;14.05;5.93;;;0.80;99.90;;;;;;5071761;28;20189;-75
2022/01/03 02:42:41;;;;;;;13.45;7.88;;;0.80;99.90;;;;;;5070514;28;20169;-76
2022/01/03 02:45:13;;;;;;;12.35;7.18;;;0.90;99.90;;;;;;5071556;28;20200;-75
2022/01/03 02:47:42;;;;;;;14.05;8.13;;;1.00;99.90;;;;;;5070564;28;20200;-75
2022/01/03 02:50:10;;;;;;;10.18;7.55;;;1.20;99.90;;;;;;5070349;28;20176;-78
2022/01/03 02:52:37;;;;;;;18.13;9.68;;;1.30;99.90;;;;;;5069352;28;20232;-75
2022/01/03 02:55:05;;;;;;;14.77;8.52;;;1.30;99.90;;;;;;5071558;28;20577;-75
2022/01/03 02:57:40;;;;;;;15.68;9.02;;;1.30;99.90;;;;;;5070159;28;20160;-75
2022/01/03 03:00:10;;;;;;;14.85;8.95;;;1.30;99.90;;;;;;5071616;28;20196;-76
2022/01/03 03:02:37;;;;;;;16.08;8.85;;;1.30;99.90;;;;;;5069976;28;20188;-75
2022/01/03 03:05:08;;;;;;;16.88;10.27;;;1.30;99.90;;;;;;5070268;28;20598;-75
2022/01/03 03:07:39;;;;;;;15.35;8.98;;;1.30;99.90;;;;;;5071400;28;20156;-75
2022/01/03 03:10:11;;;;;;;15.65;9.20;;;1.50;99.90;;;;;;5071439;28;20172;-75
2022/01/03 03:12:37;;;;;;;14.95;8.85;;;1.50;99.90;;;;;;5070225;28;20206;-74
2022/01/03 03:15:11;;;;;;;13.95;9.25;;;1.50;99.90;;;;;;5071480;28;20215;-77
2022/01/03 03:17:39;;;;;;;14.30;9.52;;;1.50;99.90;;;;;;5070207;28;20221;-77
2022/01/03 03:20:07;;;;;;;18.42;9.70;;;1.50;99.90;;;;;;5071244;28;20188;-77
2022/01/03 03:22:38;;;;;;;19.73;9.70;;;1.50;99.90;;;;;;5071401;28;20201;-77
2022/01/03 03:25:08;;;;;;;11.77;8.48;;;1.40;99.90;;;;;;5070146;28;20660;-76
2022/01/03 03:27:43;;;;;;;16.27;9.95;;;1.50;99.90;;;;;;5069974;28;20160;-74
2022/01/03 03:30:22;;;;;;;15.30;8.95;;;1.60;99.90;;;;;;5071189;28;20222;-77
2022/01/03 03:32:51;;;;;;;16.17;9.23;;;1.70;99.90;;;;;;5070899;28;20188;-77
2022/01/03 03:35:20;;;;;;;13.25;7.75;;;1.60;99.90;;;;;;5069777;28;20600;-77
2022/01/03 03:37:46;;;;;;;13.27;7.85;;;1.60;99.90;;;;;;5070829;28;20172;-77
2022/01/03 03:40:13;;;;;;;12.77;7.38;;;1.50;99.90;;;;;;5070784;28;20185;-77
2022/01/03 03:42:47;;;;;;;17.77;8.35;;;1.50;99.90;;;;;;5069374;28;20196;-76
2022/01/03 03:45:13;;;;;;;10.70;7.20;;;1.50;99.90;;;;;;5070690;28;20165;-77
2022/01/03 03:47:39;;;;;;;13.13;7.70;;;1.50;99.90;;;;;;5069486;28;20183;-77
2022/01/03 03:50:08;;;;;;;13.68;7.93;;;1.50;99.90;;;;;;5070751;28;20157;-77
2022/01/03 03:52:34;;;;;;;11.10;7.63;;;1.50;99.90;;;;;;5070647;28;20197;-77
2022/01/03 03:55:01;;;;;;;13.07;7.35;;;1.50;99.90;;;;;;5069326;28;20165;-77
2022/01/03 03:57:27;;;;;;;11.43;7.22;;;1.50;99.90;;;;;;5069399;28;20232;-77
2022/01/03 03:59:53;;;;;;;15.93;6.22;;;1.60;99.90;;;;;;5070256;28;20561;-77
2022/01/03 04:02:19;;;;;;;14.93;8.02;;;1.60;99.90;;;;;;5070565;28;20526;-76
2022/01/03 04:04:50;;;;;;;11.07;6.60;;;1.70;99.90;;;;;;5069217;28;20169;-76
2022/01/03 04:07:16;;;;;;;10.48;6.63;;;1.70;99.90;;;;;;5070112;28;20149;-76
2022/01/03 04:09:42;;;;;;;9.30;6.57;;;1.70;99.90;;;;;;5069050;28;20183;-75
2022/01/03 04:12:11;;;;;;;10.32;6.95;;;1.70;99.90;;;;;;5070301;28;20200;-76
2022/01/03 04:14:39;;;;;;;11.40;6.57;;;1.70;99.90;;;;;;5069031;28;20176;-76
2022/01/03 04:17:05;;;;;;;17.30;8.52;;;1.90;99.90;;;;;;5070392;28;20243;-76
2022/01/03 04:19:31;;;;;;;7.82;5.72;;;2.00;99.90;;;;;;5068856;28;20176;-75
2022/01/03 04:21:57;;;;;;;14.50;7.07;;;2.00;99.90;;;;;;5069944;28;20223;-76
2022/01/03 04:24:23;;;;;;;10.18;7.50;;;2.10;99.90;;;;;;5068775;28;20175;-76
2022/01/03 04:26:51;;;;;;;18.30;8.30;;;2.00;99.90;;;;;;5070099;28;20221;-75
2022/01/03 04:29:17;;;;;;;13.00;8.38;;;2.00;99.90;;;;;;5068673;28;20175;-76
2022/01/03 04:31:43;;;;;;;20.25;8.35;;;2.00;99.90;;;;;;5069822;28;20200;-76
2022/01/03 04:34:09;;;;;;;14.30;8.75;;;2.00;99.90;;;;;;5069948;28;20161;-76
2022/01/03 04:36:35;;;;;;;15.70;9.90;;;2.00;99.90;;;;;;5068572;28;20177;-76
2022/01/03 04:39:04;;;;;;;14.23;8.60;;;2.00;99.90;;;;;;5069752;28;20245;-76
2022/01/03 04:41:30;;;;;;;15.00;10.02;;;1.90;99.90;;;;;;5069524;28;20196;-76
2022/01/03 04:43:58;;;;;;;16.90;9.10;;;1.90;99.90;;;;;;5069713;28;20163;-76
2022/01/03 04:46:35;;;;;;;11.60;8.10;;;1.90;99.90;;;;;;5069549;28;20153;-75
2022/01/03 04:49:03;;;;;;;17.27;8.55;;;1.70;99.90;;;;;;5068167;28;20186;-76
2022/01/03 04:51:29;;;;;;;17.75;9.98;;;1.70;99.90;;;;;;5069523;28;20246;-75
2022/01/03 04:53:55;;;;;;;17.40;10.52;;;1.70;99.90;;;;;;5068218;28;20181;-75
2022/01/03 04:56:21;;;;;;;17.90;9.55;;;1.80;99.90;;;;;;5068193;28;20244;-75
2022/01/03 04:58:47;;;;;;;16.50;9.55;;;1.70;99.90;;;;;;5067929;28;20339;-76
2022/01/03 05:01:15;;;;;;;14.82;8.98;;;1.50;99.90;;;;;;5069134;28;20203;-75
2022/01/03 05:03:41;;;;;;;18.83;9.77;;;1.40;99.90;;;;;;5068209;28;20202;-76
2022/01/03 05:06:07;;;;;;;15.82;9.23;;;1.40;99.90;;;;;;5069418;28;20145;-76
2022/01/03 05:08:33;;;;;;;16.20;8.82;;;1.30;99.90;;;;;;5069425;28;20547;-76
2022/01/03 05:11:02;;;;;;;16.88;10.02;;;1.30;99.90;;;;;;5069290;28;20228;-75
2022/01/03 05:13:29;;;;;;;19.00;9.88;;;1.50;99.90;;;;;;5069020;28;20185;-76
2022/01/03 05:15:57;;;;;;;20.48;10.10;;;1.50;99.90;;;;;;5069073;28;20157;-75
2022/01/03 05:18:23;;;;;;;16.42;8.70;;;1.60;99.90;;;;;;5069054;28;20168;-76
2022/01/03 05:20:51;;;;;;;18.80;9.85;;;1.70;99.90;;;;;;5068265;28;20196;-76
2022/01/03 05:23:17;;;;;;;9.45;7.47;;;1.80;99.90;;;;;;5069017;28;20251;-75
2022/01/03 05:25:43;;;;;;;14.25;7.88;;;2.00;99.90;;;;;;5069151;28;20172;-76
2022/01/03 05:28:10;;;;;;;11.10;8.05;;;2.10;99.90;;;;;;5067495;28;20171;-76
2022/01/03 05:30:36;;;;;;;13.52;8.00;;;2.10;99.90;;;;;;5069001;28;20157;-75
2022/01/03 05:33:02;;;;;;;14.00;8.95;;;2.20;99.90;;;;;;5068805;28;20196;-75
2022/01/03 05:35:28;;;;;;;14.85;7.57;;;2.30;99.90;;;;;;5067724;28;20176;-76
2022/01/03 05:37:54;;;;;;;12.23;8.18;;;2.40;99.90;;;;;;5067610;28;20283;-75
2022/01/03 05:40:20;;;;;;;13.88;8.60;;;2.40;99.90;;;;;;5068776;28;20184;-75
2022/01/03 05:42:46;;;;;;;11.43;7.63;;;2.40;99.90;;;;;;5067232;28;20216;-76
2022/01/03 05:45:13;;;;;;;12.70;7.85;;;2.30;99.90;;;;;;5067332;28;20180;-75
2022/01/03 05:47:46;;;;;;;12.93;7.60;;;2.30;99.90;;;;;;5067501;28;20169;-75
2022/01/03 05:50:15;;;;;;;12.38;7.32;;;2.30;99.90;;;;;;5067334;28;20207;-75
2022/01/03 05:52:42;;;;;;;13.15;7.68;;;2.30;99.90;;;;;;5068636;28;20200;-75
2022/01/03 05:55:09;;;;;;;11.63;6.78;;;2.30;99.90;;;;;;5068675;28;20186;-76
2022/01/03 05:57:39;;;;;;;12.98;6.70;;;2.30;99.90;;;;;;5067086;28;20173;-75
2022/01/03 06:00:07;;;;;;;14.85;7.78;;;2.30;99.90;;;;;;5067152;28;20263;-75
2022/01/03 06:02:40;;;;;;;15.82;7.80;;;2.20;99.90;;;;;;5067127;28;20203;-76
2022/01/03 06:05:07;;;;;;;17.27;6.75;;;2.20;99.90;;;;;;5068479;28;20160;-75
2022/01/03 06:07:33;;;;;;;12.35;6.38;;;2.20;99.90;;;;;;5068420;28;20173;-75
2022/01/03 06:10:00;;;;;;;11.27;6.97;;;2.20;99.90;;;;;;5067278;28;20165;-75
2022/01/03 06:12:29;;;;;;;16.85;6.55;;;2.20;99.90;;;;;;5068401;28;20200;-75
2022/01/03 06:14:55;;;;;;;8.95;6.40;;;2.30;99.90;;;;;;5068610;28;20161;-75
2022/01/03 06:17:22;;;;;;;13.27;7.13;;;2.30;99.90;;;;;;5068519;28;20164;-75
2022/01/03 06:19:48;;;;;;;12.00;7.28;;;2.30;99.90;;;;;;5068383;28;20179;-75
2022/01/03 06:22:14;;;;;;;11.35;6.78;;;2.30;99.90;;;;;;5068374;28;20188;-76
2022/01/03 06:24:40;;;;;;;11.85;7.28;;;2.30;99.90;;;;;;5066752;28;20168;-76
2022/01/03 06:27:11;;;;;;;11.88;7.00;;;2.30;99.90;;;;;;5068416;28;20153;-75
2022/01/03 06:29:37;;;;;;;14.13;7.43;;;2.30;99.90;;;;;;5067005;28;20173;-75
2022/01/03 06:32:04;;;;;;;13.55;7.90;;;2.40;99.90;;;;;;5069683;28;20205;-76
2022/01/03 06:34:30;;;;;;;14.20;6.22;;;2.30;99.90;;;;;;5070634;28;20232;-75
2022/01/03 06:36:55;;;;;;;10.55;6.43;;;2.50;99.90;;;;;;5071762;28;20176;-76
2022/01/03 06:39:21;;;;;;;10.40;6.40;;;2.50;99.90;;;;;;5071776;28;20176;-76
2022/01/03 06:41:47;;;;;;;13.63;7.45;;;2.40;99.90;;;;;;5070553;28;20284;-75
2022/01/03 06:44:13;;;;;;;15.45;9.32;;;2.30;99.90;;;;;;5071712;28;20153;-75
2022/01/03 06:46:40;;;;;;;12.68;7.78;;;2.30;99.90;;;;;;5071594;28;20176;-76
2022/01/03 06:49:06;;;;;;;18.65;8.05;;;2.30;99.90;;;;;;5071594;28;20497;-75
2022/01/03 06:51:34;;;;;;;14.95;7.35;;;2.20;99.90;;;;;;5070332;28;20197;-75
2022/01/03 06:54:09;;;;;;;11.30;6.28;;;2.20;99.90;;;;;;5071648;28;20160;-75
2022/01/03 06:56:35;;;;;;;10.57;7.63;;;2.30;99.90;;;;;;5070280;28;20203;-76
2022/01/03 06:59:01;;;;;;;8.93;7.00;;;2.20;99.90;;;;;;5071317;28;20254;-75
2022/01/03 07:01:30;;;;;;;11.15;7.18;;;2.20;99.90;;;;;;5071288;28;20228;-75
2022/01/03 07:03:56;;;;;;;12.95;7.63;;;2.20;99.90;;;;;;5070009;28;20202;-75
2022/01/03 07:06:22;;;;;;;11.05;7.43;;;2.20;99.90;;;;;;5069937;28;20165;-76
2022/01/03 07:08:48;;;;;;;11.50;7.50;;;2.10;99.90;;;;;;5069847;28;20175;-75
2022/01/03 07:11:14;;;;;;;11.52;6.88;;;2.10;99.90;;;;;;5069383;28;20240;-76
2022/01/03 07:13:44;;;;;;;10.95;7.05;;;2.10;99.90;;;;;;5071315;28;20164;-76
2022/01/03 07:18:59;;;;;;;11.90;7.50;;;2.20;99.90;;;;;;5071184;28;20652;-75
2022/01/03 07:21:30;;;;;;;10.65;7.10;;;2.20;99.90;;;;;;5071057;28;20204;-75
2022/01/03 07:23:58;;;;;;;8.93;6.32;;;2.30;99.90;;;;;;5069612;28;20231;-75
2022/01/03 07:26:27;;;;;;;9.40;6.20;;;2.20;99.90;;;;;;5071030;28;20161;-75
2022/01/03 07:28:54;;;;;;;8.32;6.65;;;2.20;99.90;;;;;;5071091;28;20188;-76
2022/01/03 07:31:20;;;;;;;8.68;6.90;;;2.30;99.90;;;;;;5070918;28;20190;-76
2022/01/03 07:33:47;;;;;;;9.40;6.47;;;2.20;99.90;;;;;;5069816;28;20169;-76
2022/01/03 07:36:15;;;;;;;12.13;5.97;;;2.30;99.90;;;;;;5070674;28;20153;-75
2022/01/03 07:38:46;;;;;;;11.82;8.07;;;2.20;99.90;;;;;;5071003;28;20228;-75
2022/01/03 07:41:15;;;;;;;11.75;6.95;;;2.20;99.90;;;;;;5070684;28;20283;-75
2022/01/03 07:43:45;;;;;;;14.48;7.60;;;2.30;99.90;;;;;;5070206;28;20321;-75
2022/01/03 07:46:16;;;;;;;11.93;6.22;;;2.30;99.90;;;;;;5070815;28;20240;-76
2022/01/03 07:48:44;;;;;;;13.57;7.72;;;2.40;99.90;;;;;;5069249;28;20168;-77
2022/01/03 07:51:13;;;;;;;11.65;6.53;;;2.40;99.90;;;;;;5070715;28;20599;-76
2022/01/03 07:53:38;;;;;;;12.77;7.45;;;2.40;99.90;;;;;;5070634;28;20171;-75
2022/01/03 07:56:09;;;;;;;11.95;6.80;;;2.50;99.90;;;;;;5070640;28;20165;-75
2022/01/03 07:58:36;;;;;;;12.98;6.70;;;2.50;99.90;;;;;;5070300;28;20251;-75
2022/01/03 08:01:04;;;;;;;10.35;6.90;;;2.60;99.90;;;;;;5069032;28;20730;-76
2022/01/03 08:03:30;;;;;;;13.63;6.82;;;2.70;99.90;;;;;;5069079;28;20164;-75
2022/01/03 08:05:56;;;;;;;12.02;7.97;;;2.80;99.90;;;;;;5069855;28;20157;-75
2022/01/03 08:08:23;;;;;;;12.23;6.88;;;2.80;99.90;;;;;;5069038;28;20200;-75
2022/01/03 08:10:49;;;;;;;11.07;7.05;;;2.80;99.90;;;;;;5069094;28;20198;-75
2022/01/03 08:13:16;;;;;;;10.20;6.78;;;2.90;99.90;;;;;;5070036;28;20195;-75
2022/01/03 08:15:42;;;;;;;11.70;7.00;;;2.90;99.90;;;;;;5070087;28;20176;-75
2022/01/03 08:18:09;;;;;;;11.73;6.88;;;3.10;99.90;;;;;;5068730;28;20263;-76
2022/01/03 08:20:37;;;;;;;11.32;6.32;;;3.10;99.90;;;;;;5069680;28;20193;-75
2022/01/03 08:23:06;;;;;;;7.68;4.90;;;3.10;99.90;;;;;;5068648;28;20196;-76
2022/01/03 08:25:37;;;;;;;10.90;7.63;;;3.10;99.90;;;;;;5069991;28;20216;-76
2022/01/03 08:28:08;;;;;;;9.05;7.82;;;3.20;99.90;;;;;;5069861;28;20164;-76
2022/01/03 08:30:35;;;;;;;10.68;6.85;;;3.30;99.90;;;;;;5069923;28;20161;-76
2022/01/03 08:33:02;;;;;;;16.08;7.97;;;3.50;99.90;;;;;;5069763;28;20723;-75
2022/01/03 08:35:28;;;;;;;20.50;10.95;;;4.20;99.90;;;;;;5069866;28;20709;-75
2022/01/03 08:37:55;;;;;;;19.00;10.38;;;5.60;99.90;;;;;;5068281;28;20177;-76
2022/01/03 08:40:22;;;;;;;15.77;10.10;;;6.00;99.90;;;;;;5068100;28;20212;-76
2022/01/03 08:42:49;;;;;;;12.23;7.70;;;6.50;99.90;;;;;;5068322;28;20212;-76
2022/01/03 08:45:14;;;;;;;11.70;6.22;;;7.20;99.90;;;;;;5069522;28;20157;-75
2022/01/03 08:47:41;;;;;;;8.38;6.25;;;7.50;99.90;;;;;;5069406;28;20216;-75
2022/01/03 08:50:10;;;;;;;7.53;4.85;;;8.10;99.90;;;;;;5069426;28;20161;-75
2022/01/03 08:52:37;;;;;;;7.18;4.63;;;8.40;99.90;;;;;;5067906;28;20189;-76
2022/01/03 08:55:04;;;;;;;5.75;4.25;;;8.80;99.90;;;;;;5067068;28;20240;-75
2022/01/03 08:57:30;;;;;;;7.40;4.60;;;9.10;99.90;;;;;;5067768;28;20693;-77
2022/01/03 08:59:56;;;;;;;6.38;4.43;;;9.20;99.90;;;;;;5069204;28;20156;-75
2022/01/03 09:02:22;;;;;;;6.32;4.40;;;9.00;99.90;;;;;;5067685;28;20199;-75
2022/01/03 09:04:48;;;;;;;6.32;4.63;;;8.40;99.90;;;;;;5067794;28;20218;-75
2022/01/03 09:07:14;;;;;;;7.28;4.25;;;8.30;99.90;;;;;;5069067;28;20184;-76
2022/01/03 09:09:40;;;;;;;8.10;5.03;;;9.20;99.90;;;;;;5069042;28;20235;-75
2022/01/03 09:12:07;;;;;;;6.35;4.43;;;9.90;99.90;;;;;;5067316;28;20688;-76
2022/01/03 09:14:34;;;;;;;18.58;10.48;;;9.70;99.90;;;;;;5069013;28;20176;-75
2022/01/03 09:17:01;;;;;;;9.00;4.85;;;9.60;99.90;;;;;;5068151;28;20230;-76
2022/01/03 09:19:27;;;;;;;9.30;4.85;;;9.50;99.90;;;;;;5068888;28;20596;-77
2022/01/03 09:22:08;;;;;;;4.90;4.05;;;9.80;99.90;;;;;;5065905;28;20239;-76
2022/01/03 09:28:48;;;;;;;7.30;4.03;;;9.70;99.90;;;;;;5076261;28;20614;-77
2022/01/03 09:30:25;;;;;;;9.30;4.53;;;9.30;99.90;;;;;;5068852;28;20184;-77
2022/01/03 09:32:51;;;;;;;8.55;4.68;;;10.40;99.90;;;;;;5068622;28;20200;-77
2022/01/03 09:35:16;;;;;;;5.82;4.13;;;11.20;99.90;;;;;;5068680;28;20157;-77
2022/01/03 09:37:42;;;;;;;10.00;4.80;;;11.80;99.90;;;;;;5067459;28;20192;-77
2022/01/03 09:40:12;;;;;;;8.20;4.80;;;12.20;99.90;;;;;;5068516;28;20157;-77
2022/01/03 09:42:39;;;;;;;9.02;4.78;;;12.10;99.90;;;;;;5067073;28;20209;-77
2022/01/03 09:45:11;;;;;;;9.20;4.40;;;11.40;99.90;;;;;;5067169;28;20206;-76
2022/01/03 09:47:39;;;;;;;13.35;4.97;;;10.90;99.90;;;;;;5066651;28;20240;-77
2022/01/03 09:50:07;;;;;;;8.90;5.03;;;10.80;99.90;;;;;;5068495;28;20165;-78
2022/01/03 09:52:36;;;;;;;6.35;4.78;;;10.80;99.90;;;;;;5066952;28;20212;-78
2022/01/03 09:55:03;;;;;;;7.50;5.10;;;11.10;99.90;;;;;;5068435;28;20153;-77
2022/01/03 09:57:30;;;;;;;8.10;4.50;;;11.50;99.90;;;;;;5068003;28;20149;-76
2022/01/03 10:00:01;;;;;;;8.57;5.13;;;11.90;99.90;;;;;;5068661;28;20260;-77
2022/01/03 10:02:28;;;;;;;6.38;4.03;;;12.30;99.90;;;;;;5066899;28;20192;-77
2022/01/03 10:04:54;;;;;;;10.98;4.85;;;12.30;99.90;;;;;;5066939;28;20169;-76
2022/01/03 10:07:21;;;;;;;10.75;4.38;;;11.80;99.90;;;;;;5071414;28;20157;-76
2022/01/03 10:09:47;;;;;;;7.70;4.80;;;12.80;99.90;;;;;;5071996;28;20156;-77
2022/01/03 10:12:16;;;;;;;7.63;5.07;;;14.00;99.90;;;;;;5070676;28;20196;-75
2022/01/03 10:14:43;;;;;;;6.03;4.43;;;14.00;99.90;;;;;;5071859;28;20220;-76
2022/01/03 10:17:10;;;;;;;8.07;5.35;;;14.50;99.90;;;;;;5070762;28;20200;-76
2022/01/03 10:19:53;;;;;;;10.85;4.68;;;14.60;99.90;;;;;;5071433;28;20157;-77
2022/01/03 10:22:25;;;;;;;9.02;4.35;;;14.40;99.90;;;;;;5071884;28;20196;-77
2022/01/03 10:24:51;;;;;;;13.40;5.38;;;13.60;99.90;;;;;;5072003;28;20219;-77
2022/01/03 10:27:19;;;;;;;8.95;4.15;;;13.10;99.90;;;;;;5071588;28;20149;-77
2022/01/03 10:29:59;;;;;;;12.77;5.00;;;14.20;99.90;;;;;;5071327;28;20519;-77
2022/01/03 10:32:28;;;;;;;11.52;4.57;;;15.20;99.90;;;;;;5071819;28;20188;-77
2022/01/03 10:34:57;;;;;;;13.90;5.82;;;15.70;99.90;;;;;;5070379;28;20169;-78
2022/01/03 10:37:36;;;;;;;15.88;5.95;;;15.20;99.90;;;;;;5071670;28;20183;-77
2022/01/03 10:40:17;;;;;;;12.07;6.45;;;14.40;99.90;;;;;;5070799;28;20164;-77
2022/01/03 10:42:43;;;;;;;16.60;6.85;;;14.50;99.90;;;;;;5070239;28;20250;-78
2022/01/03 10:45:10;;;;;;;19.25;6.32;;;14.70;99.90;;;;;;5074724;28;20219;-77
2022/01/03 10:47:36;;;;;;;14.88;6.45;;;14.30;99.90;;;;;;5084632;28;20165;-72
2022/01/03 10:50:44;;;;;;;19.48;5.93;;;13.50;99.90;;;;;;5074202;28;20196;-73
2022/01/03 10:53:13;;;;;;;13.52;4.18;;;13.60;99.90;;;;;;5076314;28;20204;-72
2022/01/03 10:55:39;;;;;;;8.18;4.65;;;14.10;99.90;;;;;;5089090;28;20188;-72
2022/01/03 10:58:07;;;;;;;8.75;4.65;;;15.20;99.90;;;;;;5089103;28;20247;-73
2022/01/03 11:00:40;;;;;;;13.48;4.43;;;16.20;99.90;;;;;;5088550;28;20214;-73
2022/01/03 11:05:44;;;;;;;12.32;4.30;;;17.40;99.90;;;;;;5089533;28;20155;-73
2022/01/03 11:11:00;;;;;;;10.60;3.33;;;14.70;99.90;;;;;;5088368;28;20187;-72
2022/01/03 11:13:27;;;;;;;7.57;3.05;;;14.00;99.90;;;;;;5072002;28;20789;-72
2022/01/03 11:16:03;;;;;;;9.95;3.08;;;14.50;99.90;;;;;;5072020;28;20189;-73
2022/01/03 11:18:29;;;;;;;5.22;2.85;;;15.10;99.90;;;;;;5066097;28;20168;-73
2022/01/03 11:21:13;;;;;;;8.13;3.58;;;15.50;99.90;;;;;;5051359;28;20222;-72
2022/01/03 11:23:42;;;;;;;12.43;3.30;;;16.10;99.90;;;;;;5069020;28;20300;-72
2022/01/03 11:26:14;;;;;;;14.00;3.28;;;16.70;99.90;;;;;;5068572;28;20214;-72
2022/01/03 11:28:43;;;;;;;7.95;2.90;;;17.30;99.90;;;;;;5069759;28;20710;-72
2022/01/03 11:31:15;;;;;;;5.03;2.75;;;17.40;99.90;;;;;;5070728;28;20165;-72
2022/01/03 11:33:46;;;;;;;10.60;3.65;;;17.30;99.90;;;;;;5069029;28;20196;-72
2022/01/03 11:36:12;;;;;;;14.88;3.92;;;17.50;99.90;;;;;;5070708;28;20255;-73
2022/01/03 11:38:44;;;;;;;6.07;3.05;;;17.80;99.90;;;;;;5069241;28;20169;-72
2022/01/03 11:41:11;;;;;;;6.45;2.67;;;17.70;99.90;;;;;;5069974;28;20200;-72
2022/01/03 11:43:39;;;;;;;6.13;2.40;;;17.50;99.90;;;;;;5070649;28;20161;-72
2022/01/03 11:46:08;;;;;;;9.27;2.80;;;16.60;99.90;;;;;;5078129;28;20184;-72
2022/01/03 11:48:36;;;;;;;5.05;2.67;;;17.10;99.90;;;;;;5076597;28;20189;-72
2022/01/03 11:51:12;;;;;;;5.38;2.97;;;17.50;99.90;;;;;;5080498;28;20207;-72
2022/01/03 11:53:49;;;;;;;10.10;2.95;;;17.50;99.90;;;;;;5090243;28;20179;-72
2022/01/03 11:56:23;;;;;;;12.70;3.13;;;16.80;99.90;;;;;;5088887;28;20180;-73
2022/01/03 12:04:34;;;;;;;8.73;3.25;;;18.30;99.90;;;;;;5082632;28;20193;-72
2022/01/03 12:07:16;;;;;;;6.78;2.90;;;18.10;99.90;;;;;;5090285;28;20160;-72
2022/01/03 12:09:46;;;;;;;7.03;2.90;;;17.50;99.90;;;;;;5088244;28;20168;-73
2022/01/03 12:12:36;;;;;;;7.95;2.97;;;17.50;99.90;;;;;;5089848;28;20198;-73
2022/01/03 12:15:03;;;;;;;10.45;3.25;;;18.00;99.90;;;;;;5090046;28;20178;-73
2022/01/03 12:17:42;;;;;;;7.50;3.08;;;18.60;99.90;;;;;;5076807;28;20180;-73
2022/01/03 12:20:12;;;;;;;10.35;3.42;;;19.00;99.90;;;;;;5069357;28;20160;-73
2022/01/03 12:22:56;;;;;;;5.78;3.33;;;18.50;99.90;;;;;;5069658;28;20199;-74
2022/01/03 12:25:28;;;;;;;5.10;2.97;;;16.90;99.90;;;;;;5069841;28;20156;-72
2022/01/03 12:28:03;;;;;;;10.00;3.30;;;16.00;99.90;;;;;;5069540;28;20169;-73
2022/01/03 12:30:34;;;;;;;6.60;3.47;;;15.40;99.90;;;;;;5067564;28;20246;-72
2022/01/03 12:33:08;;;;;;;6.82;4.25;;;16.30;99.90;;;;;;5069630;28;20175;-72
2022/01/03 12:35:41;;;;;;;5.72;2.92;;;17.10;99.90;;;;;;5079263;28;20179;-72
2022/01/03 12:38:10;;;;;;;8.48;4.30;;;16.00;99.90;;;;;;5088051;28;20228;-72
2022/01/03 12:40:45;;;;;;;5.72;3.00;;;15.40;99.90;;;;;;5088859;28;20211;-72
2022/01/03 12:43:13;;;;;;;7.32;3.10;;;14.90;99.90;;;;;;5079505;28;20199;-72
2022/01/03 12:45:46;;;;;;;5.68;3.10;;;14.20;99.90;;;;;;5069302;28;20199;-72
2022/01/03 12:48:15;;;;;;;7.63;2.90;;;14.00;99.90;;;;;;5068894;28;20213;-72
2022/01/03 12:50:52;;;;;;;13.48;3.47;;;14.00;99.90;;;;;;5068514;28;20192;-72
2022/01/03 12:53:27;;;;;;;3.55;2.42;;;14.00;99.90;;;;;;5078641;28;20235;-72
2022/01/03 12:56:07;;;;;;;7.05;3.03;;;14.40;99.90;;;;;;5089070;28;20164;-72
2022/01/03 12:58:33;;;;;;;7.95;2.60;;;14.30;99.90;;;;;;5088888;28;20211;-72
2022/01/03 13:01:04;;;;;;;1.40;1.15;;;14.10;99.90;;;;;;5086967;28;20287;-72
2022/01/03 13:03:39;;;;;;;3.65;0.95;;;14.40;99.90;;;;;;5087787;28;20168;-72
2022/01/03 13:06:13;;;;;;;0.35;0.30;;;15.00;99.90;;;;;;5087621;28;20231;-71
2022/01/03 13:09:10;;;;;;;0.45;0.32;;;15.50;99.90;;;;;;5088994;28;20180;-72
2022/01/03 13:11:50;;;;;;;1.27;0.40;;;15.70;99.90;;;;;;5087058;28;20221;-73
2022/01/03 13:14:23;;;;;;;0.52;0.40;;;15.90;99.90;;;;;;5089024;28;20156;-72
2022/01/03 13:16:58;;;;;;;0.32;0.32;;;15.70;99.90;;;;;;5089175;28;20156;-72
2022/01/03 13:19:33;;;;;;;4.70;0.73;;;15.90;99.90;;;;;;5088868;28;20202;-73